createdAt,value
2018-05-08T00:02:25.632Z,4.40
2018-05-08T00:04:51.221Z,4.30
2018-05-08T00:07:16.824Z,4.47
2018-05-08T00:09:42.611Z,3.97
2018-05-08T00:12:08.192Z,3.40
2018-05-08T00:14:33.903Z,3.90
2018-05-08T00:16:59.598Z,3.60
2018-05-08T00:19:25.185Z,3.60
2018-05-08T00:21:50.780Z,3.73
2018-05-08T00:24:16.473Z,3.87
2018-05-08T00:26:42.038Z,3.70
2018-05-08T00:29:07.689Z,3.73
2018-05-08T00:31:33.511Z,3.80
2018-05-08T00:33:59.340Z,3.43
2018-05-08T00:36:24.966Z,3.90
2018-05-08T00:38:50.742Z,3.60
2018-05-08T00:41:16.471Z,3.90
2018-05-08T00:43:42.045Z,4.57
2018-05-08T00:46:07.679Z,3.90
2018-05-08T00:48:33.391Z,3.50
2018-05-08T00:50:59.031Z,3.80
2018-05-08T00:53:24.637Z,3.87
2018-05-08T00:55:50.384Z,3.63
2018-05-08T00:58:16.165Z,3.47
2018-05-08T01:00:41.769Z,3.17
2018-05-08T01:03:07.348Z,3.57
2018-05-08T01:05:33.181Z,3.73
2018-05-08T01:07:58.738Z,3.37
2018-05-08T01:10:24.326Z,3.43
2018-05-08T01:12:50.500Z,3.40
2018-05-08T01:15:16.133Z,3.80
2018-05-08T01:17:41.700Z,3.27
2018-05-08T01:20:07.574Z,3.67
2018-05-08T01:22:33.150Z,3.27
2018-05-08T01:24:58.752Z,3.13
2018-05-08T01:27:24.485Z,3.43
2018-05-08T01:29:50.057Z,3.13
2018-05-08T01:32:15.679Z,3.10
2018-05-08T01:34:41.478Z,3.00
2018-05-08T01:37:07.143Z,3.10
2018-05-08T01:39:32.773Z,3.47
2018-05-08T01:41:58.560Z,3.03
2018-05-08T01:44:24.269Z,3.60
2018-05-08T01:46:49.826Z,3.93
2018-05-08T01:49:15.521Z,4.60
2018-05-08T01:51:41.358Z,3.93
2018-05-08T01:54:06.974Z,4.70
2018-05-08T01:56:32.710Z,3.77
2018-05-08T01:58:58.287Z,3.87
2018-05-08T02:01:23.908Z,4.23
2018-05-08T02:03:49.680Z,4.03
2018-05-08T02:06:15.257Z,3.60
2018-05-08T02:08:40.834Z,4.00
2018-05-08T02:11:06.566Z,3.90
2018-05-08T02:13:32.363Z,3.77
2018-05-08T02:15:57.950Z,4.20
2018-05-08T02:18:23.760Z,3.80
2018-05-08T02:20:49.334Z,3.60
2018-05-08T02:23:15.279Z,3.50
2018-05-08T02:25:41.091Z,3.40
2018-05-08T02:28:06.713Z,3.73
2018-05-08T02:30:32.362Z,3.80
2018-05-08T02:32:58.544Z,3.83
2018-05-08T02:35:24.165Z,3.17
2018-05-08T02:37:49.714Z,3.50
2018-05-08T02:40:15.625Z,3.58
2018-05-08T02:42:41.248Z,3.57
2018-05-08T02:45:06.843Z,3.70
2018-05-08T02:47:32.594Z,3.63
2018-05-08T02:49:58.239Z,3.63
2018-05-08T02:52:24.049Z,4.00
2018-05-08T02:54:49.801Z,3.80
2018-05-08T02:57:15.679Z,3.47
2018-05-08T02:59:41.243Z,3.90
2018-05-08T03:02:06.964Z,3.40
2018-05-08T03:04:32.533Z,3.87
2018-05-08T03:06:58.276Z,3.13
2018-05-08T03:09:24.043Z,3.23
2018-05-08T03:11:49.640Z,3.10
2018-05-08T03:14:15.201Z,3.10
2018-05-08T03:16:41.347Z,3.30
2018-05-08T03:19:06.964Z,3.70
2018-05-08T03:21:32.844Z,3.70
2018-05-08T03:23:58.421Z,3.30
2018-05-08T03:26:24.185Z,3.30
2018-05-08T03:28:50.266Z,3.77
2018-05-08T03:31:15.842Z,3.40
2018-05-08T03:33:41.429Z,3.20
2018-05-08T03:36:07.471Z,3.43
2018-05-08T03:38:33.025Z,3.73
2018-05-08T03:40:58.710Z,3.83
2018-05-08T03:43:25.493Z,3.60
2018-05-08T03:45:51.200Z,3.27
2018-05-08T03:48:16.812Z,3.90
2018-05-08T03:50:42.881Z,3.17
2018-05-08T03:53:08.654Z,3.27
2018-05-08T03:55:34.878Z,3.63
2018-05-08T03:58:00.447Z,3.53
2018-05-08T04:01:04.045Z,3.23
2018-05-08T04:04:07.232Z,3.33
2018-05-08T04:06:42.580Z,3.37
2018-05-08T04:09:08.182Z,3.87
2018-05-08T04:11:34.107Z,3.30
2018-05-08T04:13:59.720Z,3.37
2018-05-08T04:16:25.665Z,3.47
2018-05-08T04:18:51.251Z,3.30
2018-05-08T04:21:16.863Z,3.33
2018-05-08T04:23:43.080Z,3.33
2018-05-08T04:26:09.311Z,3.17
2018-05-08T04:28:34.876Z,3.20
2018-05-08T04:31:00.499Z,3.70
2018-05-08T04:33:29.416Z,3.27
2018-05-08T04:35:55.026Z,2.93
2018-05-08T04:38:21.038Z,3.30
2018-05-08T04:40:46.657Z,2.87
2018-05-08T04:43:12.857Z,3.37
2018-05-08T04:45:38.416Z,3.10
2018-05-08T04:48:04.709Z,3.17
2018-05-08T04:50:30.335Z,3.30
2018-05-08T04:52:56.143Z,3.07
2018-05-08T04:55:21.706Z,2.90
2018-05-08T04:57:47.281Z,3.47
2018-05-08T05:00:13.094Z,3.23
2018-05-08T05:02:38.692Z,3.10
2018-05-08T05:05:04.262Z,3.73
2018-05-08T05:07:30.537Z,3.17
2018-05-08T05:09:56.119Z,2.87
2018-05-08T05:12:22.495Z,3.43
2018-05-08T05:14:48.062Z,3.07
2018-05-08T05:17:13.904Z,3.50
2018-05-08T05:19:39.558Z,3.30
2018-05-08T05:22:05.789Z,3.43
2018-05-08T05:24:31.410Z,3.27
2018-05-08T05:26:57.550Z,3.27
2018-05-08T05:29:23.160Z,3.33
2018-05-08T05:31:49.085Z,3.37
2018-05-08T05:34:14.705Z,3.25
2018-05-08T05:36:40.628Z,2.97
2018-05-08T05:39:06.205Z,2.80
2018-05-08T05:41:32.238Z,2.73
2018-05-08T05:43:57.888Z,2.80
2018-05-08T05:46:24.033Z,2.93
2018-05-08T05:48:49.652Z,3.03
2018-05-08T05:51:16.444Z,3.13
2018-05-08T05:53:42.034Z,2.50
2018-05-08T05:56:07.930Z,2.70
2018-05-08T05:58:33.592Z,3.00
2018-05-08T06:00:59.934Z,2.80
2018-05-08T06:03:25.525Z,2.30
2018-05-08T06:05:51.232Z,2.80
2018-05-08T06:08:16.808Z,2.60
2018-05-08T06:10:43.026Z,3.17
2018-05-08T06:13:08.609Z,2.40
2018-05-08T06:15:34.171Z,2.53
2018-05-08T06:17:59.982Z,3.17
2018-05-08T06:20:25.670Z,2.57
2018-05-08T06:22:51.233Z,3.30
2018-05-08T06:25:17.264Z,3.07
2018-05-08T06:27:42.890Z,2.73
2018-05-08T06:30:08.466Z,2.87
2018-05-08T06:32:34.242Z,2.53
2018-05-08T06:34:59.862Z,2.67
2018-05-08T06:37:25.562Z,2.67
2018-05-08T06:39:51.381Z,2.97
2018-05-08T06:42:17.041Z,2.60
2018-05-08T06:44:42.678Z,2.60
2018-05-08T06:47:08.438Z,2.70
2018-05-08T06:49:34.061Z,2.93
2018-05-08T06:51:59.689Z,2.70
2018-05-08T06:54:25.404Z,2.50
2018-05-08T06:56:51.208Z,2.50
2018-05-08T06:59:16.820Z,2.93
2018-05-08T07:01:42.713Z,3.03
2018-05-08T07:04:08.398Z,2.83
2018-05-08T07:06:33.954Z,3.20
2018-05-08T07:08:59.849Z,2.63
2018-05-08T07:11:25.406Z,2.60
2018-05-08T07:13:51.204Z,2.90
2018-05-08T07:16:17.173Z,2.60
2018-05-08T07:18:42.630Z,2.53
2018-05-08T07:21:08.253Z,3.30
2018-05-08T07:23:34.023Z,2.33
2018-05-08T07:25:59.669Z,2.50
2018-05-08T07:28:25.229Z,2.70
2018-05-08T07:30:51.069Z,2.60
2018-05-08T07:33:16.624Z,2.23
2018-05-08T07:35:42.199Z,2.30
2018-05-08T07:38:08.171Z,2.63
2018-05-08T07:40:33.669Z,2.57
2018-05-08T07:42:59.300Z,2.87
2018-05-08T07:45:25.128Z,2.83
2018-05-08T07:47:50.751Z,2.57
2018-05-08T07:50:16.341Z,2.67
2018-05-08T07:52:42.519Z,2.80
2018-05-08T07:55:08.145Z,3.13
2018-05-08T07:57:33.781Z,2.87
2018-05-08T07:59:59.547Z,2.37
2018-05-08T08:02:25.185Z,2.80
2018-05-08T08:04:50.797Z,2.43
2018-05-08T08:07:16.511Z,2.43
2018-05-08T08:09:42.109Z,2.27
2018-05-08T08:12:07.753Z,2.60
2018-05-08T08:14:33.692Z,2.67
2018-05-08T08:16:59.257Z,2.27
2018-05-08T08:19:24.873Z,2.67
2018-05-08T08:21:50.573Z,2.37
2018-05-08T08:24:16.186Z,3.05
2018-05-08T08:26:41.990Z,2.67
2018-05-08T08:29:07.894Z,2.33
